0XS5 weather

Southeastern Helicopters Heliport
South Padre Island, Texas, United States

Public forecast

Using degrees Fahrenheit for public forecast. Weather courtesy of forecast.io.

Closest aviation weather report (METAR) to Southeastern Helicopters Heliport

Closest report is Port Isabel Cameron County Airport, 9.3 nm (17.3 km) W. Retrieved 2019/10/18 15:53 UTC (25 minutes ago):

KPIL 181553Z AUTO 03010KT 10SM BKN050 28/22 A2983 RMK AO2 SLP100 T02830217

Closest aviation forecast (TAF) to Southeastern Helicopters Heliport

Closest forecast is Brownsville South Padre Island International Airport, 19.8 nm (36.7 km) SW. Retrieved 2019/10/18 12:22 UTC (4 hours ago):

TAF KBRO 181120Z 1812/1912 34006KT P6SM FEW050 SCT250 FM182100 09010KT P6SM SCT050 BKN150 FM190600 19005KT P6SM FEW250